Time;durP1;ratioP1;P1;durP2;ratioP2;P2;SDS_P1;SDS_P2;PMS_P1;PMS_P2;Temp;Humidity;BMP_temperature;BMP_pressure;BME280_temperature;BME280_humidity;BME280_pressure;Samples;Min_cycle;Max_cycle;Signal;HPM_P1;HPM_P2
2021/07/16 00:00:15;;;;;;;12.60;6.55;;;;;;;29.82;53.55;101299.34;1608822;89;21548;-48
2021/07/16 00:02:43;;;;;;;12.25;7.05;;;;;;;29.82;53.70;101298.00;1604409;89;21017;-47
2021/07/16 00:05:11;;;;;;;15.55;7.37;;;;;;;29.84;53.71;101295.20;1589859;89;21109;-47
2021/07/16 00:07:39;;;;;;;13.05;6.12;;;;;;;29.85;53.85;101297.73;1588628;89;21560;-47
2021/07/16 00:10:08;;;;;;;12.63;6.15;;;;;;;29.85;54.06;101293.70;1589787;89;21116;-48
2021/07/16 00:12:36;;;;;;;10.00;6.30;;;;;;;29.85;54.22;101293.70;1604373;89;21044;-48
2021/07/16 00:15:04;;;;;;;8.28;5.83;;;;;;;29.83;54.43;101298.37;1586237;89;21090;-52
2021/07/16 00:17:31;;;;;;;14.55;5.80;;;;;;;29.81;54.68;101300.35;1589611;88;21074;-47
2021/07/16 00:19:58;;;;;;;12.78;6.03;;;;;;;29.81;54.95;101300.35;1592715;88;21066;-48
2021/07/16 00:22:24;;;;;;;11.33;6.40;;;;;;;29.80;55.31;101298.64;1594066;88;21132;-47
2021/07/16 00:24:52;;;;;;;12.80;6.25;;;;;;;29.80;55.69;101290.59;1621939;87;21061;-48
2021/07/16 00:27:18;;;;;;;38.30;8.30;;;;;;;29.81;56.01;101293.64;1591339;88;21072;-49
2021/07/16 00:29:46;;;;;;;9.55;5.78;;;;;;;29.82;56.22;101292.64;1590619;89;21109;-48
2021/07/16 00:32:12;;;;;;;11.60;6.67;;;;;;;29.83;56.44;101292.15;1594273;88;21108;-48
2021/07/16 00:34:39;;;;;;;8.58;6.15;;;;;;;29.83;56.59;101293.00;1590625;89;21068;-52
2021/07/16 00:37:07;;;;;;;15.45;6.30;;;;;;;29.85;56.73;101298.22;1590782;88;21066;-49
2021/07/16 00:39:34;;;;;;;13.05;6.30;;;;;;;29.87;56.82;101297.09;1588212;89;21526;-48
2021/07/16 00:42:01;;;;;;;9.30;5.72;;;;;;;29.88;56.70;101289.41;1594649;88;21017;-47
2021/07/16 00:44:29;;;;;;;9.20;5.22;;;;;;;29.89;56.20;101292.43;1595285;89;21119;-50
2021/07/16 00:46:55;;;;;;;10.82;5.15;;;;;;;29.90;56.01;101294.63;1594973;90;21071;-47
2021/07/16 00:49:22;;;;;;;11.48;5.87;;;;;;;29.90;56.05;101296.81;1595125;89;21079;-49
2021/07/16 00:51:49;;;;;;;10.35;6.20;;;;;;;29.90;56.04;101297.30;1595293;90;21074;-49
2021/07/16 00:54:16;;;;;;;10.63;5.47;;;;;;;29.91;56.10;101295.81;1595129;89;21526;-48
2021/07/16 00:56:43;;;;;;;9.95;5.33;;;;;;;29.93;56.24;101289.80;1566473;90;21099;-50
2021/07/16 00:59:14;;;;;;;11.10;5.60;;;;;;;29.95;56.40;101290.50;1604259;89;21069;-50
2021/07/16 01:01:37;;;;;;;7.37;5.17;;;;;;;29.98;56.44;101290.72;1576016;90;21074;-47
2021/07/16 01:04:05;;;;;;;9.70;5.33;;;;;;;29.99;56.44;101295.08;1599380;88;21066;-52
2021/07/16 01:06:31;;;;;;;9.53;5.40;;;;;;;30.00;56.55;101294.95;1596487;89;21059;-50
2021/07/16 01:08:58;;;;;;;9.85;5.22;;;;;;;30.02;56.67;101291.63;1596269;88;21067;-49
2021/07/16 01:11:25;;;;;;;9.08;5.12;;;;;;;30.03;56.70;101289.28;1608505;89;21112;-48
2021/07/16 01:13:53;;;;;;;8.88;5.42;;;;;;;30.05;56.68;101300.72;1593092;89;21070;-48
2021/07/16 01:16:20;;;;;;;11.12;5.95;;;;;;;30.06;56.51;101303.77;1605335;89;21057;-49
2021/07/16 01:18:47;;;;;;;11.12;5.17;;;;;;;30.07;56.36;101306.78;1584308;90;21069;-49
2021/07/16 01:21:14;;;;;;;10.18;4.80;;;;;;;30.08;56.22;101315.20;1596036;89;21609;-48
2021/07/16 01:23:42;;;;;;;16.10;5.37;;;;;;;30.07;55.86;101312.16;1601560;88;21050;-49
2021/07/16 01:26:09;;;;;;;11.60;4.78;;;;;;;30.06;55.23;101310.48;1603574;89;21129;-49
2021/07/16 01:28:38;;;;;;;10.03;4.67;;;;;;;30.03;54.94;101303.19;1585712;89;21085;-49
2021/07/16 01:31:06;;;;;;;13.13;4.87;;;;;;;29.98;55.05;101306.33;1582945;89;21106;-50
2021/07/16 01:33:33;;;;;;;10.48;4.75;;;;;;;29.93;55.20;101297.86;1618389;87;21073;-52
2021/07/16 01:35:59;;;;;;;10.00;5.55;;;;;;;29.91;55.32;101301.17;1598023;89;21070;-48
2021/07/16 01:38:27;;;;;;;11.08;5.20;;;;;;;29.90;55.60;101299.50;1619381;88;21196;-48
2021/07/16 01:40:55;;;;;;;11.18;4.87;;;;;;;29.88;55.70;101294.77;1593517;89;21565;-48
2021/07/16 01:43:22;;;;;;;20.72;5.03;;;;;;;29.85;55.64;101299.07;1590276;89;21041;-49
2021/07/16 01:45:49;;;;;;;9.45;4.40;;;;;;;29.84;55.75;101297.40;1592793;89;21123;-48
2021/07/16 01:48:16;;;;;;;10.10;4.85;;;;;;;29.84;55.66;101300.08;1591780;89;21131;-48
2021/07/16 01:50:48;;;;;;;9.33;4.87;;;;;;;29.83;55.46;101299.71;1588944;89;21108;-48
2021/07/16 01:53:20;;;;;;;4.20;3.70;;;;;;;29.83;55.41;101299.71;1593667;89;21037;-46
2021/07/16 01:55:47;;;;;;;6.12;4.35;;;;;;;29.84;55.28;101300.08;1600118;89;21046;-47
2021/07/16 01:58:14;;;;;;;6.65;4.17;;;;;;;29.85;55.00;101307.13;1618545;88;21081;-48
2021/07/16 02:00:46;;;;;;;9.15;3.60;;;;;;;29.86;54.60;101299.92;1593992;89;21618;-49
2021/07/16 02:05:45;;;;;;;6.33;3.85;;;;;;;29.88;53.23;101297.46;1583536;90;21062;-46
2021/07/16 02:08:18;;;;;;;4.25;3.10;;;;;;;29.90;52.85;101300.84;1594096;89;21560;-47
2021/07/16 02:10:49;;;;;;;7.87;3.55;;;;;;;29.91;52.81;101299.84;1589685;89;21070;-46
2021/07/16 02:13:16;;;;;;;8.48;3.58;;;;;;;29.93;52.62;101297.00;1590449;89;21560;-47
2021/07/16 02:15:46;;;;;;;7.78;3.85;;;;;;;29.93;52.42;101295.66;1593518;89;21566;-52
2021/07/16 02:18:16;;;;;;;8.88;3.90;;;;;;;29.94;52.19;101294.20;1590512;89;21108;-49
2021/07/16 02:20:43;;;;;;;9.98;4.20;;;;;;;29.95;51.93;101293.19;1590779;89;21516;-46
2021/07/16 02:23:17;;;;;;;4.30;3.33;;;;;;;29.99;51.84;101296.42;1589414;89;21119;-49
2021/07/16 02:25:44;;;;;;;7.12;3.00;;;;;;;29.98;51.28;101291.58;1587354;89;21166;-50
2021/07/16 02:28:26;;;;;;;5.53;3.52;;;;;;;29.99;49.77;101291.91;1567986;90;21141;-50
2021/07/16 02:30:52;;;;;;;5.58;3.52;;;;;;;30.00;48.14;101294.95;1498932;95;21093;-51
2021/07/16 02:33:20;;;;;;;7.85;3.35;;;;;;;29.99;46.96;101295.93;1520003;94;21102;-48
2021/07/16 02:35:47;;;;;;;6.40;3.85;;;;;;;29.97;46.44;101289.01;1504642;94;21096;-49
2021/07/16 02:38:14;;;;;;;5.37;3.50;;;;;;;29.95;46.30;101289.16;1516952;94;21082;-48
2021/07/16 02:40:42;;;;;;;4.45;3.60;;;;;;;29.93;45.55;101295.17;1501197;95;21645;-48
2021/07/16 02:43:09;;;;;;;11.65;3.95;;;;;;;29.89;45.05;101300.48;1500992;96;21120;-51
2021/07/16 02:45:37;;;;;;;6.15;3.77;;;;;;;29.85;44.24;101296.39;1501206;96;21130;-49
2021/07/16 02:48:05;;;;;;;6.30;3.33;;;;;;;29.80;43.89;101293.28;1505220;94;21153;-47
2021/07/16 02:50:35;;;;;;;6.62;3.25;;;;;;;29.77;43.70;101292.24;1514927;93;21605;-48
2021/07/16 02:53:05;;;;;;;8.15;3.40;;;;;;;29.74;43.71;101299.22;1519148;94;21084;-47
2021/07/16 02:55:34;;;;;;;5.05;2.92;;;;;;;29.70;43.48;101297.78;1509518;94;21199;-48
2021/07/16 02:58:00;;;;;;;4.95;3.08;;;;;;;29.66;42.83;101289.67;1499566;95;21159;-48
2021/07/16 03:00:29;;;;;;;4.28;3.17;;;;;;;29.62;42.76;101284.23;1499469;96;21112;-48
2021/07/16 03:02:58;;;;;;;5.28;3.08;;;;;;;29.58;42.61;101281.49;1480095;96;21157;-49
2021/07/16 03:05:30;;;;;;;10.15;3.00;;;;;;;29.55;42.52;101281.80;1477506;96;21117;-47
2021/07/16 03:07:58;;;;;;;5.42;3.60;;;;;;;29.53;42.29;101293.16;1480916;96;21080;-48
2021/07/16 03:10:35;;;;;;;5.33;3.62;;;;;;;29.50;42.11;101298.79;1479739;96;21608;-47
2021/07/16 03:13:05;;;;;;;6.05;3.65;;;;;;;29.48;41.98;101301.63;1481311;97;21548;-49
2021/07/16 03:15:34;;;;;;;6.53;3.62;;;;;;;29.45;41.84;101302.41;1500263;95;21143;-49
2021/07/16 03:18:04;;;;;;;9.23;3.35;;;;;;;29.41;41.80;101304.98;1498966;95;21089;-52
2021/07/16 03:20:34;;;;;;;5.20;3.20;;;;;;;29.39;40.64;101302.45;1500447;95;21136;-52
2021/07/16 03:23:01;;;;;;;5.25;3.05;;;;;;;29.36;39.59;101301.90;1469990;96;21149;-48
2021/07/16 03:25:28;;;;;;;6.05;2.92;;;;;;;29.34;40.27;101299.85;1465467;97;21572;-48
2021/07/16 03:27:55;;;;;;;4.95;3.00;;;;;;;29.32;40.71;101291.95;1520745;92;21137;-46
2021/07/16 03:30:25;;;;;;;5.83;3.50;;;;;;;29.29;39.85;101291.37;1534895;92;21046;-47
2021/07/16 03:32:52;;;;;;;3.20;2.55;;;;;;;29.26;39.73;101295.69;1534562;92;21139;-47
2021/07/16 03:35:22;;;;;;;9.30;3.60;;;;;;;29.23;40.08;101295.47;1534752;92;21117;-47
2021/07/16 03:37:48;;;;;;;5.83;3.00;;;;;;;29.22;40.20;101298.30;1538513;91;21081;-49
2021/07/16 03:40:17;;;;;;;7.47;2.90;;;;;;;29.21;40.77;101301.95;1537009;92;21085;-53
2021/07/16 03:42:44;;;;;;;11.48;3.37;;;;;;;29.22;41.15;101299.64;1535739;92;21619;-48
2021/07/16 03:45:13;;;;;;;6.33;3.25;;;;;;;29.25;41.57;101303.36;1533230;91;21118;-48
2021/07/16 03:47:44;;;;;;;9.78;3.00;;;;;;;29.34;42.10;101303.88;1537719;91;21117;-47
2021/07/16 03:50:13;;;;;;;6.08;2.92;;;;;;;29.51;42.27;101299.16;1521931;94;21217;-48
2021/07/16 03:52:40;;;;;;;7.08;2.98;;;;;;;29.70;42.07;101297.30;1541293;92;21054;-52
2021/07/16 03:55:09;;;;;;;4.65;2.98;;;;;;;29.88;41.82;101296.12;1546636;92;21111;-50
2021/07/16 03:57:44;;;;;;;4.23;3.00;;;;;;;30.08;41.71;101293.73;1534911;92;21094;-48
2021/07/16 04:00:13;;;;;;;4.72;3.05;;;;;;;30.34;41.46;101298.83;1518744;93;22315;-48
2021/07/16 04:02:42;;;;;;;5.50;2.92;;;;;;;30.69;41.10;101303.47;1511886;94;21112;-48
2021/07/16 04:05:10;;;;;;;94.52;8.83;;;;;;;31.15;40.42;101302.52;1522847;92;21144;-51
2021/07/16 04:07:45;;;;;;;7.58;3.75;;;;;;;31.53;39.89;101294.69;1529661;92;21130;-48
2021/07/16 04:10:08;;;;;;;42.17;6.28;;;;;;;31.78;39.44;101294.71;1488911;96;21525;-51
2021/07/16 04:12:36;;;;;;;65.80;7.80;;;;;;;31.99;39.02;101295.73;1534741;93;21578;-48
2021/07/16 04:15:06;;;;;;;11.35;3.35;;;;;;;32.09;38.37;101298.67;1495758;95;21105;-48
2021/07/16 04:17:33;;;;;;;27.13;5.75;;;;;;;32.08;36.83;101288.92;1512720;94;21199;-48
2021/07/16 04:20:02;;;;;;;8.73;3.72;;;;;;;31.96;35.72;101291.50;1539946;91;21073;-52
2021/07/16 04:22:29;;;;;;;12.75;3.70;;;;;;;31.82;35.72;101300.12;1553172;92;21126;-48
2021/07/16 04:24:56;;;;;;;7.53;4.10;;;;;;;31.67;36.20;101309.78;1551515;91;21137;-48
2021/07/16 04:27:23;;;;;;;9.55;3.30;;;;;;;31.52;36.82;101304.59;1549890;92;21140;-48
2021/07/16 04:29:50;;;;;;;7.47;3.15;;;;;;;31.37;36.80;101309.31;1536192;93;21170;-50
2021/07/16 04:32:16;;;;;;;7.83;3.62;;;;;;;31.24;37.21;101312.38;1536467;93;21545;-51
2021/07/16 04:34:43;;;;;;;10.08;3.20;;;;;;;31.12;37.66;101307.70;1536455;93;21370;-48
2021/07/16 04:37:11;;;;;;;9.30;3.90;;;;;;;31.06;38.36;101312.83;1536574;93;21145;-48
2021/07/16 04:39:38;;;;;;;10.58;3.52;;;;;;;30.99;38.83;101311.77;1536461;93;21125;-48
2021/07/16 04:42:05;;;;;;;8.35;3.50;;;;;;;30.94;38.96;101312.70;1536689;93;21522;-48
2021/07/16 04:44:31;;;;;;;9.28;3.50;;;;;;;30.88;38.92;101310.61;1536481;93;21094;-48
2021/07/16 04:46:59;;;;;;;10.65;4.10;;;;;;;30.85;38.86;101312.27;1536448;93;21101;-48
2021/07/16 04:49:26;;;;;;;15.03;3.62;;;;;;;30.81;39.25;101313.54;1525921;92;21120;-48
2021/07/16 04:51:54;;;;;;;10.35;3.92;;;;;;;30.78;39.11;101315.17;1517278;93;21101;-46
2021/07/16 04:54:20;;;;;;;13.83;3.62;;;;;;;30.73;39.09;101310.76;1593587;88;21054;-50
2021/07/16 04:56:47;;;;;;;7.50;4.05;;;;;;;30.72;39.03;101315.77;1594989;88;21102;-50
2021/07/16 04:59:15;;;;;;;5.58;3.50;;;;;;;30.70;39.11;101317.76;1622036;87;21062;-49
2021/07/16 05:01:42;;;;;;;7.05;4.10;;;;;;;30.69;39.23;101329.48;1642575;86;21071;-51
2021/07/16 05:04:08;;;;;;;8.48;3.77;;;;;;;30.67;39.37;101327.44;1636295;87;21040;-47
2021/07/16 05:06:35;;;;;;;7.05;4.95;;;;;;;30.65;39.24;101326.26;1633967;87;21571;-46
2021/07/16 05:09:03;;;;;;;8.90;3.65;;;;;;;30.63;40.35;101333.62;1640782;86;21119;-49
2021/07/16 05:11:31;;;;;;;7.67;4.00;;;;;;;30.63;39.97;101333.62;1639120;86;21083;-47
2021/07/16 05:14:00;;;;;;;5.30;3.30;;;;;;;30.63;40.83;101324.70;1624203;87;21074;-48
2021/07/16 05:16:28;;;;;;;10.45;4.00;;;;;;;30.63;40.67;101324.70;1621421;86;21063;-50
2021/07/16 05:18:56;;;;;;;5.67;3.70;;;;;;;30.66;40.24;101325.77;1636524;87;21076;-48
2021/07/16 05:21:24;;;;;;;9.30;3.72;;;;;;;30.70;39.70;101323.13;1630653;87;21059;-50
2021/07/16 05:23:52;;;;;;;7.03;3.75;;;;;;;30.74;39.59;101317.31;1632125;86;21028;-48
2021/07/16 05:26:19;;;;;;;12.00;4.28;;;;;;;30.82;39.99;101313.88;1637184;87;21075;-47
2021/07/16 05:28:49;;;;;;;11.38;4.17;;;;;;;30.88;39.56;101310.61;1628457;87;21090;-49
2021/07/16 05:31:17;;;;;;;14.67;3.90;;;;;;;30.94;39.66;101318.07;1627987;86;21087;-49
2021/07/16 05:33:45;;;;;;;20.12;5.62;;;;;;;31.00;39.40;101317.47;1634818;87;21558;-48
2021/07/16 05:36:13;;;;;;;15.48;4.90;;;;;;;31.05;39.48;101316.04;1609252;88;21052;-51
2021/07/16 05:38:40;;;;;;;8.05;4.58;;;;;;;31.14;39.22;101316.98;1607690;88;21635;-50
2021/07/16 05:41:08;;;;;;;8.95;5.78;;;;;;;31.21;39.63;101315.35;1631551;87;21040;-50
2021/07/16 05:43:35;;;;;;;14.85;5.47;;;;;;;31.28;40.17;101313.76;1629070;87;21586;-48
2021/07/16 05:46:03;;;;;;;11.00;4.60;;;;;;;31.38;40.95;101322.59;1624068;87;21598;-48
2021/07/16 05:48:33;;;;;;;13.30;7.58;;;;;;;31.48;40.91;101323.39;1642656;86;21071;-48
2021/07/16 05:51:01;;;;;;;17.55;9.25;;;;;;;31.56;40.95;101319.42;1641244;86;21096;-48
2021/07/16 05:53:28;;;;;;;18.70;10.30;;;;;;;31.63;41.31;101325.89;1641140;86;21071;-51
2021/07/16 05:55:55;;;;;;;8.78;5.08;;;;;;;31.68;41.22;101322.22;1612949;87;21109;-48
2021/07/16 05:58:22;;;;;;;7.20;4.55;;;;;;;31.74;41.08;101326.13;1628156;86;21032;-47
2021/07/16 06:00:50;;;;;;;7.85;4.50;;;;;;;31.77;41.12;101321.30;1616958;87;21106;-52
2021/07/16 06:03:17;;;;;;;9.60;4.60;;;;;;;31.82;41.33;101324.34;1631750;86;21001;-50
2021/07/16 06:05:44;;;;;;;14.60;5.00;;;;;;;31.89;41.30;101323.22;1628357;87;21072;-48
2021/07/16 06:08:10;;;;;;;21.52;4.90;;;;;;;31.99;41.20;101312.73;1635394;87;21040;-50
2021/07/16 06:10:40;;;;;;;20.12;4.90;;;;;;;32.11;40.76;101315.18;1629942;87;21083;-50
2021/07/16 06:13:07;;;;;;;11.43;4.65;;;;;;;32.22;40.67;101314.89;1610523;87;21109;-48
2021/07/16 06:15:33;;;;;;;5.35;3.75;;;;;;;32.30;40.16;101313.59;1609407;87;21557;-49
2021/07/16 06:18:00;;;;;;;11.73;4.40;;;;;;;32.39;39.77;101313.50;1611948;87;21049;-49
2021/07/16 06:20:27;;;;;;;13.18;4.42;;;;;;;32.51;39.33;101310.05;1622030;87;21006;-51
2021/07/16 06:22:54;;;;;;;12.98;4.75;;;;;;;32.59;39.30;101312.77;1605739;88;21066;-49
2021/07/16 06:25:21;;;;;;;7.22;3.87;;;;;;;32.66;39.67;101308.44;1603619;87;21098;-52
2021/07/16 06:27:48;;;;;;;9.73;4.08;;;;;;;32.71;40.57;101314.16;1606655;88;21081;-51
2021/07/16 06:30:16;;;;;;;12.15;4.30;;;;;;;32.73;41.19;101314.84;1609551;88;21038;-48
2021/07/16 06:32:45;;;;;;;14.50;4.28;;;;;;;32.71;41.34;101305.58;1609074;88;21160;-51
2021/07/16 06:35:12;;;;;;;12.37;4.28;;;;;;;32.69;40.90;101312.13;1611193;87;21024;-51
2021/07/16 06:37:40;;;;;;;13.55;4.40;;;;;;;32.65;41.04;101307.58;1608179;87;21509;-48
2021/07/16 06:40:09;;;;;;;15.08;4.67;;;;;;;32.63;41.22;101307.40;1612966;87;21036;-49
2021/07/16 06:42:36;;;;;;;9.00;4.47;;;;;;;32.61;41.48;101308.06;1622560;87;21003;-52
2021/07/16 06:45:06;;;;;;;17.37;4.53;;;;;;;32.61;41.60;101306.72;1616791;87;21545;-47
2021/07/16 06:47:33;;;;;;;12.90;4.22;;;;;;;32.61;41.78;101302.67;1611250;88;21224;-48
2021/07/16 06:50:01;;;;;;;51.83;7.08;;;;;;;32.62;41.59;101301.69;1598372;88;21605;-50
2021/07/16 06:52:31;;;;;;;12.07;4.53;;;;;;;32.62;41.55;101301.69;1617168;87;21028;-47
2021/07/16 06:54:58;;;;;;;9.95;4.00;;;;;;;32.61;41.67;101294.59;1610148;87;21046;-49
2021/07/16 06:57:25;;;;;;;9.10;4.10;;;;;;;32.62;41.70;101294.95;1619438;87;21485;-50
2021/07/16 06:59:52;;;;;;;13.48;4.85;;;;;;;32.62;41.99;101295.77;1626118;87;21067;-50
2021/07/16 07:02:19;;;;;;;11.73;3.90;;;;;;;32.62;42.14;101297.11;1613384;87;21560;-50
2021/07/16 07:04:46;;;;;;;12.73;4.92;;;;;;;32.64;42.45;101298.32;1610295;87;21206;-50
2021/07/16 07:07:12;;;;;;;10.65;3.47;;;;;;;32.64;42.60;101294.28;1606552;87;21127;-49
2021/07/16 07:09:41;;;;;;;12.23;4.53;;;;;;;32.66;42.70;101290.92;1605012;87;21034;-50
2021/07/16 07:12:08;;;;;;;22.05;6.83;;;;;;;32.69;42.47;101298.66;1615839;87;21138;-51
2021/07/16 07:14:36;;;;;;;19.82;4.60;;;;;;;32.70;42.46;101298.52;1608369;87;21471;-53
2021/07/16 07:17:03;;;;;;;7.58;4.05;;;;;;;32.72;43.10;101298.35;1605991;88;21064;-49
2021/07/16 07:19:29;;;;;;;12.05;4.92;;;;;;;32.74;42.93;101300.38;1603319;88;21071;-48
2021/07/16 07:21:57;;;;;;;10.48;4.80;;;;;;;32.77;43.46;101302.73;1609241;87;21053;-50
2021/07/16 07:24:24;;;;;;;9.60;5.50;;;;;;;32.80;43.10;101297.87;1614833;88;21023;-50
2021/07/16 07:26:54;;;;;;;14.28;4.72;;;;;;;32.85;42.83;101297.39;1598060;88;21657;-50
2021/07/16 07:29:21;;;;;;;24.15;5.80;;;;;;;32.89;42.56;101295.53;1602444;88;21074;-49
2021/07/16 07:31:48;;;;;;;9.10;4.45;;;;;;;32.95;42.32;101302.14;1603405;88;21086;-50
2021/07/16 07:34:15;;;;;;;7.72;4.92;;;;;;;32.99;43.02;101294.09;1601270;88;21214;-49
2021/07/16 07:36:48;;;;;;;8.45;4.15;;;;;;;33.05;43.11;101296.12;1594770;88;21068;-52
2021/07/16 07:39:15;;;;;;;8.58;4.28;;;;;;;33.11;43.16;101298.16;1610012;88;21018;-50
2021/07/16 07:41:45;;;;;;;7.67;4.40;;;;;;;33.17;42.85;101301.54;1609206;87;21009;-48
2021/07/16 07:44:14;;;;;;;17.30;7.12;;;;;;;33.21;42.98;101300.20;1612922;88;21558;-48
2021/07/16 07:46:44;;;;;;;9.58;5.00;;;;;;;33.27;43.13;101306.27;1606480;87;21075;-49
2021/07/16 07:49:13;;;;;;;11.65;4.47;;;;;;;33.31;43.20;101304.92;1607742;87;22047;-48
2021/07/16 07:51:40;;;;;;;8.80;4.50;;;;;;;33.37;43.90;101311.50;1607102;88;21073;-49
2021/07/16 07:54:09;;;;;;;12.45;4.58;;;;;;;33.38;43.98;101303.27;1615924;88;21093;-49
2021/07/16 07:56:36;;;;;;;9.33;4.10;;;;;;;33.41;43.72;101301.56;1609772;88;21076;-51
2021/07/16 07:59:04;;;;;;;10.32;4.50;;;;;;;33.42;43.12;101301.91;1607792;88;21082;-52
2021/07/16 08:01:33;;;;;;;13.50;4.62;;;;;;;33.43;42.93;101312.18;1608392;88;21081;-53
2021/07/16 08:04:01;;;;;;;8.33;4.12;;;;;;;33.44;42.92;101310.69;1610785;88;21576;-49
2021/07/16 08:06:28;;;;;;;10.10;4.97;;;;;;;33.44;42.93;101305.29;1616974;88;21058;-50
2021/07/16 08:08:54;;;;;;;5.47;3.83;;;;;;;33.44;43.09;101304.44;1603097;88;20987;-54
2021/07/16 08:11:21;;;;;;;13.25;4.37;;;;;;;33.44;40.18;101297.19;1609774;88;21560;-49
2021/07/16 08:13:54;;;;;;;8.68;3.60;;;;;;;33.46;39.28;101300.56;1608867;88;21045;-51
2021/07/16 08:16:20;;;;;;;4.83;3.43;;;;;;;33.48;37.72;101299.89;1620812;88;21045;-49
2021/07/16 08:18:49;;;;;;;7.53;3.37;;;;;;;33.51;36.67;101290.13;1609192;87;21156;-50
2021/07/16 08:21:15;;;;;;;7.50;3.35;;;;;;;33.54;35.85;101292.50;1617912;88;21131;-48
2021/07/16 08:23:42;;;;;;;9.60;3.40;;;;;;;33.57;35.86;101292.15;1609925;87;21038;-52
2021/07/16 08:26:11;;;;;;;8.25;3.30;;;;;;;33.60;35.13;101293.17;1615586;88;21538;-49
2021/07/16 08:28:40;;;;;;;15.63;5.67;;;;;;;33.64;35.38;101288.27;1614950;88;21030;-49
2021/07/16 08:31:07;;;;;;;12.82;8.90;;;;;;;33.70;36.61;101290.80;1610988;88;21041;-53
2021/07/16 08:33:34;;;;;;;12.90;5.30;;;;;;;33.75;37.22;101289.30;1617623;88;21089;-50
2021/07/16 08:36:01;;;;;;;6.90;3.77;;;;;;;33.81;36.32;101287.76;1611557;87;21049;-51
2021/07/16 08:38:28;;;;;;;5.47;3.30;;;;;;;33.85;36.95;101287.25;1607511;87;21597;-51
2021/07/16 08:40:57;;;;;;;9.43;2.80;;;;;;;33.88;34.50;101288.24;1616553;87;21095;-48
2021/07/16 08:43:24;;;;;;;7.78;3.70;;;;;;;33.93;33.83;101280.98;1608937;87;21041;-50
2021/07/16 08:45:51;;;;;;;4.90;3.25;;;;;;;33.98;33.21;101286.73;1608164;87;21101;-48
2021/07/16 08:48:18;;;;;;;10.78;3.50;;;;;;;34.02;33.14;101283.55;1610497;87;21021;-51
2021/07/16 08:50:47;;;;;;;5.42;2.87;;;;;;;34.07;33.22;101285.71;1616147;87;20975;-50
2021/07/16 08:53:14;;;;;;;7.47;2.85;;;;;;;34.12;32.41;101280.66;1611474;87;21077;-50
2021/07/16 08:55:42;;;;;;;5.22;2.20;;;;;;;34.17;31.74;101279.64;1616996;87;21547;-50
2021/07/16 08:58:10;;;;;;;5.78;2.30;;;;;;;34.21;31.52;101285.03;1622260;87;21049;-54
2021/07/16 09:00:37;;;;;;;5.42;2.58;;;;;;;34.21;31.41;101274.22;1619482;87;21546;-49
2021/07/16 09:03:05;;;;;;;8.08;2.75;;;;;;;34.21;31.63;101280.98;1617904;87;21057;-48
2021/07/16 09:05:40;;;;;;;7.53;2.87;;;;;;;34.20;32.34;101281.48;1617467;87;21125;-50
2021/07/16 09:08:17;;;;;;;7.00;2.40;;;;;;;34.20;32.09;101280.63;1630886;85;20999;-50
2021/07/16 09:10:50;;;;;;;7.00;2.72;;;;;;;34.17;31.54;101276.94;1541490;91;21605;-49
2021/07/16 09:13:17;;;;;;;9.03;3.67;;;;;;;34.15;31.33;101277.63;1538601;92;21418;-50
2021/07/16 09:15:53;;;;;;;6.55;3.62;;;;;;;34.11;31.74;101268.14;1550871;92;21020;-50
2021/07/16 09:18:24;;;;;;;6.20;3.08;;;;;;;34.10;31.99;101273.23;1544889;92;21095;-48
2021/07/16 09:21:07;;;;;;;9.25;3.40;;;;;;;34.07;31.85;101274.91;1517185;93;21606;-50
2021/07/16 09:23:40;;;;;;;6.40;3.40;;;;;;;34.03;32.27;101269.02;1517291;93;21050;-47
2021/07/16 09:26:14;;;;;;;7.35;3.30;;;;;;;34.03;32.46;101276.27;1517806;93;21110;-49
2021/07/16 09:28:45;;;;;;;4.55;3.40;;;;;;;34.02;32.87;101267.85;1510498;93;21083;-49
2021/07/16 09:31:23;;;;;;;7.15;3.50;;;;;;;34.04;32.20;101269.88;1504687;93;21067;-50
2021/07/16 09:33:57;;;;;;;7.28;2.77;;;;;;;34.08;32.55;101269.86;1512521;93;21093;-49
2021/07/16 09:36:34;;;;;;;7.72;3.02;;;;;;;34.15;32.36;101264.11;1511497;93;21118;-49
2021/07/16 09:39:12;;;;;;;5.55;2.65;;;;;;;34.23;32.00;101266.79;1514398;93;21026;-50
2021/07/16 09:41:55;;;;;;;9.00;3.20;;;;;;;34.33;31.00;101263.38;1510916;92;21608;-49
2021/07/16 09:44:38;;;;;;;6.58;2.27;;;;;;;34.45;30.33;101256.56;1493197;93;21122;-50
2021/07/16 09:47:18;;;;;;;5.15;2.45;;;;;;;34.58;29.08;101265.50;1500588;93;21936;-49
2021/07/16 09:49:49;;;;;;;6.47;3.12;;;;;;;34.70;28.78;101261.38;1501682;94;21128;-50
2021/07/16 09:52:19;;;;;;;4.37;2.33;;;;;;;34.79;29.37;101267.90;1503836;93;21147;-48
2021/07/16 09:55:16;;;;;;;7.90;2.58;;;;;;;34.92;30.17;101265.97;1510232;93;21099;-49
2021/07/16 09:57:52;;;;;;;7.22;3.00;;;;;;;35.05;30.04;101262.21;1502450;94;21115;-52
2021/07/16 10:00:23;;;;;;;4.50;3.08;;;;;;;35.19;29.73;101266.34;1506187;93;21089;-52
2021/07/16 10:02:55;;;;;;;6.37;3.47;;;;;;;35.32;29.58;101263.53;1521815;93;21104;-53
2021/07/16 10:05:25;;;;;;;7.80;2.80;;;;;;;35.42;29.73;101258.71;1503346;93;21126;-49
2021/07/16 10:07:53;;;;;;;8.33;3.22;;;;;;;35.53;30.05;101256.97;1532032;91;21046;-50
2021/07/16 10:10:22;;;;;;;7.75;3.83;;;;;;;35.61;29.88;101259.60;1551385;89;21548;-50
2021/07/16 10:12:50;;;;;;;7.00;3.75;;;;;;;35.69;29.02;101259.02;1556927;91;21740;-49
2021/07/16 10:15:23;;;;;;;5.73;3.70;;;;;;;35.76;29.88;101260.45;1529503;92;21763;-49
2021/07/16 10:17:50;;;;;;;;;;;;;;;35.79;31.08;101265.52;1517099;91;21135;-48
2021/07/16 10:20:18;;;;;;;6.75;3.25;;;;;;;35.80;33.12;101259.05;1605429;88;20404;-50
2021/07/16 10:22:46;;;;;;;6.78;2.80;;;;;;;35.78;34.32;101266.02;1607685;88;21037;-48
2021/07/16 10:25:18;;;;;;;6.72;3.33;;;;;;;35.79;35.29;101266.87;1603080;88;21525;-50
2021/07/16 10:27:45;;;;;;;5.53;3.52;;;;;;;35.80;36.04;101267.18;1606922;88;21081;-50
2021/07/16 10:30:16;;;;;;;6.10;3.75;;;;;;;35.78;37.12;101266.52;1609358;88;21061;-50
2021/07/16 10:32:47;;;;;;;8.00;3.77;;;;;;;35.76;37.84;101263.16;1597506;88;21605;-49
2021/07/16 10:35:24;;;;;;;9.28;5.87;;;;;;;35.74;38.28;101262.50;1631552;87;21113;-47
2021/07/16 10:38:00;;;;;;;5.67;4.80;;;;;;;35.72;38.17;101261.84;1592346;88;21048;-51
2021/07/16 10:40:40;;;;;;;11.90;5.60;;;;;;;35.69;39.03;101265.79;1631443;86;21031;-50
2021/07/16 10:43:32;;;;;;;7.10;3.83;;;;;;;35.66;38.97;101263.94;1615079;88;21040;-47
2021/07/16 10:46:00;;;;;;;7.12;3.15;;;;;;;35.62;37.34;101259.41;1602260;88;21645;-49
2021/07/16 10:48:37;;;;;;;8.00;3.98;;;;;;;35.58;37.67;101262.16;1617043;88;21525;-50
2021/07/16 10:51:03;;;;;;;7.37;3.75;;;;;;;35.58;38.42;101259.95;1635903;87;21064;-50
2021/07/16 10:53:35;;;;;;;10.45;4.03;;;;;;;35.54;38.48;101254.07;1642986;86;21602;-50
2021/07/16 10:56:08;;;;;;;9.63;3.83;;;;;;;35.48;39.09;101246.69;1641361;86;21047;-49
2021/07/16 10:58:43;;;;;;;14.50;9.85;;;;;;;35.44;39.35;101247.20;1640114;86;21531;-48
2021/07/16 11:01:10;;;;;;;9.98;5.22;;;;;;;35.42;40.45;101251.95;1632620;87;21068;-49
2021/07/16 11:03:50;;;;;;;11.75;7.00;;;;;;;35.39;41.88;101242.83;1626301;86;21063;-49
2021/07/16 11:06:19;;;;;;;12.65;4.83;;;;;;;35.37;42.20;101243.52;1624546;87;21111;-48
2021/07/16 11:08:53;;;;;;;10.93;4.75;;;;;;;35.35;41.88;101244.22;1630833;86;21000;-49
2021/07/16 11:11:39;;;;;;;8.15;3.80;;;;;;;35.32;41.82;101245.95;1628484;87;21202;-52
2021/07/16 11:14:09;;;;;;;10.78;4.08;;;;;;;35.28;41.72;101252.75;1616154;88;21029;-49
2021/07/16 11:16:39;;;;;;;5.97;3.62;;;;;;;35.23;41.97;101244.31;1602176;88;21563;-53
2021/07/16 11:19:17;;;;;;;6.35;3.92;;;;;;;35.18;42.68;101245.70;1594513;88;21023;-50
2021/07/16 11:21:51;;;;;;;6.12;3.60;;;;;;;35.15;43.34;101237.96;1642412;86;21009;-50
2021/07/16 11:24:22;;;;;;;7.90;3.65;;;;;;;35.11;42.45;101235.29;1597841;88;21002;-50
2021/07/16 11:27:16;;;;;;;5.83;3.67;;;;;;;35.09;40.74;101235.98;1609088;87;21081;-49
2021/07/16 11:29:49;;;;;;;6.50;3.98;;;;;;;35.04;40.08;101241.08;1592251;88;21183;-50
2021/07/16 11:32:30;;;;;;;8.50;4.45;;;;;;;35.02;41.09;101236.86;1610866;87;21074;-49